createdAt,value
2023-01-11T00:00:36.071Z,100288.34
2023-01-11T00:03:03.155Z,100291.22
2023-01-11T00:05:29.687Z,100285.25
2023-01-11T00:07:56.217Z,100275.69
2023-01-11T00:10:23.050Z,100276.94
2023-01-11T00:12:49.497Z,100278.19
2023-01-11T00:15:16.186Z,100274.22
2023-01-11T00:17:42.667Z,100270.25
2023-01-11T00:20:10.257Z,100263.50
2023-01-11T00:22:37.485Z,100253.56
2023-01-11T00:25:03.996Z,100265.53
2023-01-11T00:27:30.245Z,100252.03
2023-01-11T00:29:56.502Z,100260.03
2023-01-11T00:32:22.862Z,100271.66
2023-01-11T00:34:49.246Z,100263.28
2023-01-11T00:37:16.616Z,100273.69
2023-01-11T00:39:42.903Z,100259.38
2023-01-11T00:42:29.429Z,100250.63
2023-01-11T00:45:14.615Z,100239.88
2023-01-11T00:48:00.921Z,100232.28
2023-01-11T00:50:29.490Z,100227.09
2023-01-11T00:52:56.084Z,100238.25
2023-01-11T00:55:22.681Z,100222.69
2023-01-11T00:57:49.068Z,100241.06
2023-01-11T01:00:15.657Z,100234.66
2023-01-11T01:02:42.054Z,100238.25
2023-01-11T01:05:08.657Z,100242.66
2023-01-11T01:07:34.882Z,100242.31
2023-01-11T01:10:01.337Z,100232.38
2023-01-11T01:12:46.183Z,100239.56
2023-01-11T01:15:13.197Z,100225.59
2023-01-11T01:17:39.669Z,100234.44
2023-01-11T01:20:06.485Z,100233.25
2023-01-11T01:22:33.423Z,100233.66
2023-01-11T01:24:59.827Z,100246.47
2023-01-11T01:27:26.452Z,100229.34
2023-01-11T01:29:52.731Z,100222.56
2023-01-11T01:32:19.162Z,100229.41
2023-01-11T01:34:45.619Z,100221.03
2023-01-11T01:37:11.957Z,100219.47
2023-01-11T01:39:38.437Z,100221.06
2023-01-11T01:42:06.040Z,100212.69
2023-01-11T01:44:51.005Z,100206.75
2023-01-11T01:47:18.524Z,100202.78
2023-01-11T01:49:44.993Z,100203.19
2023-01-11T01:52:11.890Z,100208.44
2023-01-11T01:54:41.838Z,100194.88
2023-01-11T01:57:29.095Z,100194.88
2023-01-11T01:59:56.319Z,100192.50
2023-01-11T02:02:24.708Z,100194.16
2023-01-11T02:04:52.832Z,100178.59
2023-01-11T02:07:20.955Z,100171.84
2023-01-11T02:09:51.249Z,100185.44
2023-01-11T02:12:18.313Z,100179.47
2023-01-11T02:14:45.670Z,100182.69
2023-01-11T02:17:12.308Z,100180.72
2023-01-11T02:19:58.629Z,100183.13
2023-01-11T02:22:30.682Z,100184.75
2023-01-11T02:24:57.363Z,100191.94
2023-01-11T02:27:42.551Z,100179.59
2023-01-11T02:30:26.580Z,100177.25
2023-01-11T02:33:22.224Z,100161.28
2023-01-11T02:35:57.323Z,100166.88
2023-01-11T02:38:33.763Z,100162.16
2023-01-11T02:41:13.543Z,100159.38
2023-01-11T02:44:05.250Z,100155.00
2023-01-11T02:46:41.370Z,100159.03
2023-01-11T02:49:21.344Z,100155.88
2023-01-11T02:51:52.363Z,100161.44
2023-01-11T02:54:21.412Z,100157.91
2023-01-11T02:56:50.152Z,100156.72
2023-01-11T02:59:19.305Z,100146.78
2023-01-11T03:01:51.014Z,100144.81
2023-01-11T03:04:33.512Z,100140.00
2023-01-11T03:07:02.784Z,100145.22
2023-01-11T03:09:40.482Z,100140.44
2023-01-11T03:12:37.824Z,100135.63
2023-01-11T03:15:18.332Z,100134.47
2023-01-11T03:17:53.276Z,100129.31
2023-01-11T03:20:28.513Z,100127.69
2023-01-11T03:23:00.790Z,100130.09
2023-01-11T03:25:40.605Z,100132.50
2023-01-11T03:28:15.104Z,100126.94
2023-01-11T03:30:49.677Z,100121.78
2023-01-11T03:33:29.264Z,100123.38
2023-01-11T03:35:59.929Z,100123.81
2023-01-11T03:38:40.385Z,100119.03
2023-01-11T03:41:19.011Z,100103.88
2023-01-11T03:43:47.311Z,100113.84
2023-01-11T03:46:17.749Z,100114.66
2023-01-11T03:48:49.762Z,100115.47
2023-01-11T03:51:19.179Z,100116.25
2023-01-11T03:53:47.696Z,100110.66
2023-01-11T03:56:15.873Z,100109.06
2023-01-11T03:58:42.378Z,100112.25
2023-01-11T04:01:09.852Z,100097.47
2023-01-11T04:03:36.126Z,100113.81
2023-01-11T04:06:02.983Z,100108.59
2023-01-11T04:08:30.988Z,100107.00
2023-01-11T04:10:57.650Z,100119.38
2023-01-11T04:13:24.247Z,100114.59
2023-01-11T04:15:52.128Z,100117.38
2023-01-11T04:18:20.057Z,100115.75
2023-01-11T04:20:46.403Z,100116.94
2023-01-11T04:23:12.652Z,100109.34
2023-01-11T04:25:39.101Z,100099.34
2023-01-11T04:28:05.419Z,100108.53
2023-01-11T04:30:31.870Z,100096.94
2023-01-11T04:32:59.142Z,100098.94
2023-01-11T04:35:25.767Z,100106.09
2023-01-11T04:37:55.797Z,100113.66
2023-01-11T04:40:22.701Z,100092.50
2023-01-11T04:42:49.303Z,100105.22
2023-01-11T04:45:15.755Z,100094.84
2023-01-11T04:47:43.872Z,100091.63
2023-01-11T04:50:12.009Z,100084.06
2023-01-11T04:52:40.657Z,100087.22
2023-01-11T04:55:07.291Z,100092.03
2023-01-11T04:57:33.566Z,100085.25
2023-01-11T05:00:00.049Z,100084.00
2023-01-11T05:02:26.394Z,100094.81
2023-01-11T05:04:52.660Z,100090.03
2023-01-11T05:07:18.956Z,100086.03
2023-01-11T05:09:45.278Z,100082.44
2023-01-11T05:12:11.558Z,100071.69
2023-01-11T05:14:37.991Z,100071.69
2023-01-11T05:17:04.331Z,100066.88
2023-01-11T05:19:30.614Z,100078.91
2023-01-11T05:21:56.886Z,100074.91
2023-01-11T05:24:23.351Z,100080.50
2023-01-11T05:26:50.172Z,100079.31
2023-01-11T05:29:16.680Z,100075.34
2023-01-11T05:31:43.060Z,100083.72
2023-01-11T05:34:11.641Z,100078.13
2023-01-11T05:36:38.106Z,100072.53
2023-01-11T05:39:04.749Z,100076.94
2023-01-11T05:41:31.182Z,100079.72
2023-01-11T05:44:16.425Z,100078.56
2023-01-11T05:46:43.454Z,100078.94
2023-01-11T05:49:11.027Z,100084.97
2023-01-11T05:51:38.179Z,100081.38
2023-01-11T05:54:05.735Z,100075.78
2023-01-11T05:56:32.485Z,100077.38
2023-01-11T05:58:58.940Z,100078.25
2023-01-11T06:01:25.897Z,100068.66
2023-01-11T06:03:52.273Z,100068.28
2023-01-11T06:06:19.173Z,100063.13
2023-01-11T06:08:45.650Z,100073.13
2023-01-11T06:11:12.323Z,100065.53
2023-01-11T06:13:38.753Z,100061.16
2023-01-11T06:16:06.259Z,100069.97
2023-01-11T06:18:34.493Z,100069.97
2023-01-11T06:21:01.231Z,100072.38
2023-01-11T06:23:28.436Z,100073.19
2023-01-11T06:25:55.183Z,100072.81
2023-01-11T06:28:21.570Z,100072.81
2023-01-11T06:30:51.156Z,100070.03
2023-01-11T06:33:17.445Z,100074.03
2023-01-11T06:35:43.928Z,100082.88
2023-01-11T06:38:11.738Z,100081.25
2023-01-11T06:40:38.968Z,100080.47
2023-01-11T06:43:05.860Z,100073.69
2023-01-11T06:45:32.161Z,100062.50
2023-01-11T06:47:58.459Z,100065.78
2023-01-11T06:50:25.258Z,100070.56
2023-01-11T06:52:59.311Z,100073.00
2023-01-11T06:55:27.097Z,100063.03
2023-01-11T06:57:53.731Z,100071.03
2023-01-11T07:00:20.532Z,100078.25
2023-01-11T07:02:47.409Z,100075.88
2023-01-11T07:05:14.331Z,100069.88
2023-01-11T07:07:41.581Z,100085.50
2023-01-11T07:10:09.532Z,100075.53
2023-01-11T07:12:36.091Z,100089.13
2023-01-11T07:15:02.854Z,100087.16
2023-01-11T07:17:29.095Z,100091.22
2023-01-11T07:19:55.345Z,100088.00
2023-01-11T07:22:22.508Z,100097.66
2023-01-11T07:24:49.044Z,100106.47
2023-01-11T07:27:15.374Z,100103.28
2023-01-11T07:29:41.831Z,100099.66
2023-01-11T07:32:10.994Z,100114.09
2023-01-11T07:34:37.824Z,100120.09
2023-01-11T07:37:04.349Z,100125.31
2023-01-11T07:39:42.830Z,100122.16
2023-01-11T07:42:29.499Z,100126.94
2023-01-11T07:44:55.995Z,100125.75
2023-01-11T07:47:22.315Z,100130.53
2023-01-11T07:49:48.905Z,100133.34
2023-01-11T07:52:15.325Z,100140.53
2023-01-11T07:54:41.630Z,100146.13
2023-01-11T07:57:08.072Z,100157.75
2023-01-11T07:59:34.402Z,100159.75
2023-01-11T08:02:00.716Z,100159.38
2023-01-11T08:04:26.982Z,100157.38
2023-01-11T08:06:53.409Z,100154.19
2023-01-11T08:09:19.869Z,100155.00
2023-01-11T08:12:04.973Z,100161.41
2023-01-11T08:14:40.223Z,100169.44
2023-01-11T08:17:14.520Z,100168.22
2023-01-11T08:19:41.227Z,100155.84
2023-01-11T08:22:08.308Z,100151.47
2023-01-11T08:24:37.386Z,100151.91
2023-01-11T08:27:04.383Z,100154.34
2023-01-11T08:29:31.030Z,100167.13
2023-01-11T08:31:57.400Z,100167.56
2023-01-11T08:34:23.838Z,100156.00
2023-01-11T08:36:50.118Z,100163.19
2023-01-11T08:39:16.571Z,100175.63
2023-01-11T08:41:42.857Z,100169.63
2023-01-11T08:44:09.258Z,100171.25
2023-01-11T08:46:38.087Z,100167.69
2023-01-11T08:49:04.990Z,100173.69
2023-01-11T08:51:31.294Z,100165.72
2023-01-11T08:53:57.536Z,100169.34
2023-01-11T08:56:25.034Z,100181.78
2023-01-11T08:58:52.313Z,100176.59
2023-01-11T09:01:19.097Z,100171.41
2023-01-11T09:03:45.604Z,100183.03
2023-01-11T09:06:11.998Z,100191.47
2023-01-11T09:08:38.634Z,100211.50
2023-01-11T09:11:25.055Z,100209.53
2023-01-11T09:13:51.274Z,100203.16
2023-01-11T09:16:17.560Z,100207.59
2023-01-11T09:18:43.855Z,100216.00
2023-01-11T09:21:10.801Z,100218.84
2023-01-11T09:23:38.174Z,100225.28
2023-01-11T09:26:05.451Z,100218.50
2023-01-11T09:28:32.195Z,100221.34
2023-01-11T09:30:58.516Z,100230.94
2023-01-11T09:33:24.749Z,100239.41
2023-01-11T09:35:51.699Z,100233.44
2023-01-11T09:38:18.200Z,100233.84
2023-01-11T09:41:00.852Z,100236.69
2023-01-11T09:43:30.140Z,100265.13
2023-01-11T09:46:00.676Z,100285.53
2023-01-11T09:48:36.504Z,100290.78
2023-01-11T09:51:05.231Z,100290.78
2023-01-11T09:53:38.300Z,100300.34
2023-01-11T09:56:07.771Z,100296.34
2023-01-11T09:58:41.808Z,100296.28
2023-01-11T10:01:30.931Z,100309.91
2023-01-11T10:04:25.841Z,100299.44
2023-01-11T10:06:52.202Z,100288.63
2023-01-11T10:18:29.330Z,100300.09
2023-01-11T10:18:49.424Z,100298.47
2023-01-11T10:21:15.996Z,100312.44
2023-01-11T10:23:55.985Z,100313.22
2023-01-11T10:26:32.442Z,100334.38
2023-01-11T10:29:17.364Z,100337.19
2023-01-11T10:32:01.865Z,100317.53
2023-01-11T10:34:43.075Z,100331.13
2023-01-11T10:37:30.447Z,100323.91
2023-01-11T10:40:06.874Z,100320.66
2023-01-11T10:42:37.245Z,100322.66
2023-01-11T10:45:12.936Z,100315.47
2023-01-11T10:47:41.483Z,100328.28
2023-01-11T10:50:30.372Z,100314.25
2023-01-11T10:53:07.582Z,100307.06
2023-01-11T10:55:41.652Z,100333.06
2023-01-11T10:58:25.168Z,100337.88
2023-01-11T11:01:18.637Z,100339.88
2023-01-11T11:03:45.193Z,100341.06
2023-01-11T11:06:26.161Z,100337.06
2023-01-11T11:09:01.279Z,100342.22
2023-01-11T11:11:38.413Z,100337.44
2023-01-11T11:14:29.761Z,100339.41
2023-01-11T11:17:05.225Z,100338.63
2023-01-11T11:19:32.725Z,100328.22
2023-01-11T11:21:59.734Z,100339.06
2023-01-11T11:24:33.464Z,100344.28
2023-01-11T11:27:03.496Z,100353.91
2023-01-11T11:29:30.785Z,100359.13
2023-01-11T11:31:58.922Z,100361.19
2023-01-11T11:34:27.447Z,100354.41
2023-01-11T11:36:54.405Z,100354.47
2023-01-11T11:39:31.002Z,100360.50
2023-01-11T11:42:05.052Z,100371.31
2023-01-11T11:44:31.760Z,100372.13
2023-01-11T11:46:59.156Z,100377.72
2023-01-11T11:49:25.790Z,100376.13
2023-01-11T11:51:52.661Z,100368.91
2023-01-11T11:54:21.291Z,100380.47
2023-01-11T11:56:47.877Z,100379.25
2023-01-11T11:59:16.297Z,100381.25
2023-01-11T12:01:46.815Z,100389.59
2023-01-11T12:04:18.118Z,100384.75
2023-01-11T12:06:46.190Z,100379.50
2023-01-11T12:09:33.122Z,100381.44
2023-01-11T12:12:00.123Z,100382.94
2023-01-11T12:14:30.793Z,100388.50
2023-01-11T12:17:00.226Z,100382.41
2023-01-11T12:19:36.724Z,100389.59
2023-01-11T12:22:19.952Z,100372.00
2023-01-11T12:24:47.432Z,100377.59
2023-01-11T12:27:16.809Z,100380.81
2023-01-11T12:29:46.713Z,100379.25
2023-01-11T12:32:31.899Z,100373.69
2023-01-11T12:34:58.776Z,100382.94
2023-01-11T12:37:45.508Z,100388.22
2023-01-11T12:40:30.540Z,100385.88
2023-01-11T12:42:56.787Z,100388.75
2023-01-11T12:45:29.081Z,100383.63
2023-01-11T12:48:19.035Z,100377.22
2023-01-11T12:50:48.395Z,100382.00
2023-01-11T12:53:33.106Z,100377.59
2023-01-11T12:56:18.170Z,100384.34
2023-01-11T12:59:06.067Z,100377.88
2023-01-11T13:01:58.518Z,100388.66
2023-01-11T13:04:24.948Z,100387.81
2023-01-11T13:06:54.290Z,100387.38
2023-01-11T13:09:20.631Z,100388.56
2023-01-11T13:11:56.349Z,100390.56
2023-01-11T13:14:41.910Z,100393.75
2023-01-11T13:17:16.678Z,100403.75
2023-01-11T13:20:01.613Z,100408.16
2023-01-11T13:22:35.072Z,100418.56
2023-01-11T13:25:02.696Z,100414.56
2023-01-11T13:27:31.660Z,100427.75
2023-01-11T13:30:01.767Z,100418.56
2023-01-11T13:32:32.755Z,100421.75
2023-01-11T13:35:03.625Z,100421.28
2023-01-11T13:37:36.392Z,100412.88
2023-01-11T13:40:24.881Z,100419.22
2023-01-11T13:42:54.306Z,100423.19
2023-01-11T13:45:28.393Z,100430.78
2023-01-11T13:47:56.926Z,100426.00
2023-01-11T13:50:39.791Z,100435.63
2023-01-11T13:53:09.777Z,100430.47
2023-01-11T13:55:55.053Z,100438.09
2023-01-11T13:58:36.863Z,100441.34
2023-01-11T14:01:15.539Z,100445.75
2023-01-11T14:03:45.077Z,100450.97
2023-01-11T14:06:26.392Z,100451.78
2023-01-11T14:09:00.465Z,100450.97
2023-01-11T14:11:32.595Z,100460.16
2023-01-11T14:14:15.536Z,100466.97
2023-01-11T14:16:48.240Z,100459.75
2023-01-11T14:19:21.838Z,100472.56
2023-01-11T14:21:54.011Z,100468.97
2023-01-11T14:24:21.708Z,100470.94
2023-01-11T14:26:51.079Z,100478.97
2023-01-11T14:29:36.121Z,100480.16
2023-01-11T14:32:17.642Z,100491.34
2023-01-11T14:34:52.814Z,100492.56
2023-01-11T14:37:42.339Z,100480.91
2023-01-11T14:40:21.560Z,100481.66
2023-01-11T14:43:06.332Z,100480.81
2023-01-11T14:45:32.604Z,100492.31
2023-01-11T14:48:04.816Z,100491.06
2023-01-11T14:50:50.000Z,100490.16
2023-01-11T14:53:19.280Z,100501.31
2023-01-11T14:55:46.730Z,100497.66
2023-01-11T14:58:19.675Z,100497.19
2023-01-11T15:00:46.073Z,100501.16
2023-01-11T15:03:12.305Z,100506.28
2023-01-11T15:05:45.972Z,100515.88
2023-01-11T15:08:15.066Z,100517.06
2023-01-11T15:10:49.162Z,100508.66
2023-01-11T15:13:21.829Z,100510.28
2023-01-11T15:16:07.943Z,100507.09
2023-01-11T15:18:42.049Z,100507.09
2023-01-11T15:21:15.247Z,100503.50
2023-01-11T15:23:48.592Z,100504.31
2023-01-11T15:26:18.697Z,100506.75
2023-01-11T15:28:56.494Z,100505.09
2023-01-11T15:31:34.602Z,100502.31
2023-01-11T15:34:21.179Z,100511.91
2023-01-11T15:36:52.406Z,100515.06
2023-01-11T15:39:23.112Z,100520.22
2023-01-11T15:42:11.064Z,100519.78
2023-01-11T15:44:56.707Z,100513.31
2023-01-11T15:47:29.101Z,100522.09
2023-01-11T15:49:58.526Z,100518.50
2023-01-11T15:52:31.035Z,100518.03
2023-01-11T15:55:17.562Z,100526.44
2023-01-11T15:57:49.952Z,100530.81
2023-01-11T16:00:35.212Z,100539.50
2023-01-11T16:03:11.705Z,100533.03
2023-01-11T16:05:41.447Z,100535.66
2023-01-11T16:08:08.088Z,100532.81
2023-01-11T16:10:46.506Z,100534.75
2023-01-11T16:13:29.996Z,100535.03
2023-01-11T16:15:59.355Z,100530.56
2023-01-11T16:18:27.864Z,100528.06
2023-01-11T16:21:01.006Z,100537.19
2023-01-11T16:23:27.663Z,100525.91
2023-01-11T16:25:55.874Z,100533.44
2023-01-11T16:28:22.155Z,100545.72
2023-01-11T16:30:54.789Z,100545.66
2023-01-11T16:33:24.435Z,100554.31
2023-01-11T16:36:02.619Z,100551.88
2023-01-11T16:38:30.928Z,100564.63
2023-01-11T16:40:58.336Z,100564.19
2023-01-11T16:43:29.120Z,100561.72
2023-01-11T16:45:55.841Z,100570.50
2023-01-11T16:48:26.352Z,100575.25
2023-01-11T16:51:17.228Z,100577.94
2023-01-11T16:53:45.860Z,100573.09
2023-01-11T16:56:18.221Z,100573.03
2023-01-11T16:59:02.100Z,100579.72
2023-01-11T17:01:28.491Z,100574.03
2023-01-11T17:03:55.144Z,100563.50
2023-01-11T17:06:22.646Z,100569.81
2023-01-11T17:08:50.830Z,100567.69
2023-01-11T17:11:26.103Z,100572.00
2023-01-11T17:14:03.182Z,100573.09
2023-01-11T17:16:36.983Z,100571.84
2023-01-11T17:19:17.257Z,100568.97
2023-01-11T17:22:03.665Z,100579.22
2023-01-11T17:24:31.549Z,100583.53
2023-01-11T17:26:59.265Z,100579.06
2023-01-11T17:29:32.699Z,100581.38
2023-01-11T17:32:00.860Z,100584.91
2023-01-11T17:34:31.596Z,100588.44
2023-01-11T17:36:58.454Z,100582.38
2023-01-11T17:39:35.433Z,100593.09
2023-01-11T17:42:22.235Z,100593.91
2023-01-11T17:45:08.498Z,100597.88
2023-01-11T17:47:37.483Z,100596.59
2023-01-11T17:50:04.326Z,100604.63
2023-01-11T17:52:43.878Z,100605.78
2023-01-11T17:55:18.220Z,100603.00
2023-01-11T17:57:44.951Z,100596.59
2023-01-11T18:00:18.705Z,100597.41
2023-01-11T18:02:45.902Z,100591.03
2023-01-11T18:05:34.938Z,100595.81
2023-01-11T18:08:01.314Z,100588.69
2023-01-11T18:10:28.964Z,100587.91
2023-01-11T18:12:56.619Z,100602.28
2023-01-11T18:15:30.905Z,100585.16
2023-01-11T18:17:57.577Z,100587.97
2023-01-11T18:20:32.461Z,100584.81
2023-01-11T18:23:04.707Z,100589.59
2023-01-11T18:25:33.824Z,100596.34
2023-01-11T18:28:12.504Z,100597.16
2023-01-11T18:30:45.765Z,100605.19
2023-01-11T18:33:19.832Z,100596.44
2023-01-11T18:35:47.823Z,100599.22
2023-01-11T18:38:18.637Z,100584.91
2023-01-11T18:40:45.523Z,100587.78
2023-01-11T18:43:12.356Z,100584.28
2023-01-11T18:45:39.227Z,100581.59
2023-01-11T18:48:09.780Z,100588.03
2023-01-11T18:50:37.140Z,100589.75
2023-01-11T18:53:03.591Z,100596.22
2023-01-11T18:55:31.324Z,100596.69
2023-01-11T18:57:58.520Z,100592.72
2023-01-11T19:00:24.913Z,100593.97
2023-01-11T19:05:22.598Z,100588.47
2023-01-11T19:07:50.198Z,100600.44
2023-01-11T19:10:20.492Z,100603.63
2023-01-11T19:12:46.989Z,100609.22
2023-01-11T19:15:14.010Z,100603.63
2023-01-11T19:17:40.535Z,100587.66
2023-01-11T19:20:09.253Z,100597.56
2023-01-11T19:22:36.840Z,100588.38
2023-01-11T19:25:03.358Z,100591.91
2023-01-11T19:27:30.009Z,100589.47
2023-01-11T19:29:58.251Z,100592.19
2023-01-11T19:32:25.498Z,100581.38
2023-01-11T19:34:52.326Z,100590.94
2023-01-11T19:37:20.955Z,100587.22
2023-01-11T19:39:47.483Z,100566.44
2023-01-11T19:42:13.707Z,100562.03
2023-01-11T19:44:41.149Z,100560.38
2023-01-11T19:47:11.983Z,100552.38
2023-01-11T19:49:40.483Z,100538.00
2023-01-11T19:52:13.209Z,100541.94
2023-01-11T19:54:41.754Z,100531.13
2023-01-11T19:57:16.142Z,100533.50
2023-01-11T19:59:42.476Z,100535.09
2023-01-11T20:02:10.568Z,100531.13
2023-01-11T20:04:37.306Z,100534.72
2023-01-11T20:07:03.680Z,100535.63
2023-01-11T20:09:29.988Z,100526.06
2023-01-11T20:11:58.084Z,100516.19
2023-01-11T20:14:25.485Z,100527.44
2023-01-11T20:16:51.933Z,100532.66
2023-01-11T20:19:18.506Z,100511.56
2023-01-11T20:21:44.902Z,100510.03
2023-01-11T20:24:14.786Z,100503.25
2023-01-11T20:26:41.368Z,100503.72
2023-01-11T20:29:07.855Z,100509.31
2023-01-11T20:31:35.826Z,100491.38
2023-01-11T20:34:13.577Z,100514.91
2023-01-11T20:36:40.165Z,100506.88
2023-01-11T20:39:07.350Z,100503.63
2023-01-11T20:41:49.892Z,100498.78
2023-01-11T20:44:18.153Z,100501.56
2023-01-11T20:46:47.941Z,100489.16
2023-01-11T20:49:14.831Z,100479.97
2023-01-11T20:51:41.214Z,100489.88
2023-01-11T20:54:07.628Z,100496.63
2023-01-11T20:56:34.628Z,100492.22
2023-01-11T20:59:01.382Z,100484.66
2023-01-11T21:01:28.101Z,100485.47
2023-01-11T21:03:55.150Z,100473.13
2023-01-11T21:06:21.367Z,100477.53
2023-01-11T21:08:48.090Z,100471.22
2023-01-11T21:11:15.292Z,100466.06
2023-01-11T21:13:41.922Z,100447.69
2023-01-11T21:16:11.617Z,100458.16
2023-01-11T21:18:38.513Z,100471.34
2023-01-11T21:21:05.045Z,100466.59
2023-01-11T21:23:31.624Z,100476.22
2023-01-11T21:25:58.119Z,100464.69
2023-01-11T21:28:24.568Z,100469.09
2023-01-11T21:30:51.034Z,100471.97
2023-01-11T21:33:17.661Z,100480.81
2023-01-11T21:35:44.612Z,100477.63
2023-01-11T21:38:10.897Z,100480.50
2023-01-11T21:40:37.128Z,100491.22
2023-01-11T21:43:03.385Z,100486.91
2023-01-11T21:45:29.959Z,100475.72
2023-01-11T21:47:56.424Z,100474.13
2023-01-11T21:50:22.881Z,100445.28
2023-01-11T21:52:49.354Z,100446.81
2023-01-11T21:55:15.704Z,100448.72
2023-01-11T21:57:42.011Z,100444.63
2023-01-11T22:00:08.724Z,100449.31
2023-01-11T22:02:35.173Z,100421.31
2023-01-11T22:05:01.507Z,100426.81
2023-01-11T22:07:32.403Z,100417.13
2023-01-11T22:10:05.783Z,100407.88
2023-01-11T22:12:32.909Z,100420.94
2023-01-11T22:14:59.191Z,100422.81
2023-01-11T22:17:25.879Z,100407.97
2023-01-11T22:19:53.384Z,100412.66
2023-01-11T22:22:20.826Z,100404.94
2023-01-11T22:24:47.132Z,100403.69
2023-01-11T22:27:13.448Z,100412.78
2023-01-11T22:29:43.245Z,100405.13
2023-01-11T22:32:09.709Z,100412.28
2023-01-11T22:34:38.984Z,100397.84
2023-01-11T22:37:05.807Z,100404.53
2023-01-11T22:39:33.543Z,100408.88
2023-01-11T22:41:59.972Z,100413.97
2023-01-11T22:44:26.454Z,100421.09
2023-01-11T22:46:52.782Z,100407.50
2023-01-11T22:49:19.765Z,100421.03
2023-01-11T22:51:48.348Z,100423.00
2023-01-11T22:54:16.020Z,100423.00
2023-01-11T22:56:44.858Z,100407.41
2023-01-11T22:59:11.185Z,100428.56
2023-01-11T23:01:39.033Z,100431.72
2023-01-11T23:04:06.002Z,100423.44
2023-01-11T23:06:35.584Z,100445.75
2023-01-11T23:09:02.092Z,100421.91
2023-01-11T23:11:48.700Z,100434.69
2023-01-11T23:14:16.614Z,100428.31
2023-01-11T23:16:43.827Z,100437.56
2023-01-11T23:19:11.231Z,100433.22
2023-01-11T23:21:40.179Z,100442.06
2023-01-11T23:24:06.828Z,100434.13
2023-01-11T23:26:35.720Z,100450.97
2023-01-11T23:29:01.966Z,100441.03
2023-01-11T23:31:29.562Z,100426.00
2023-01-11T23:33:56.916Z,100434.03
2023-01-11T23:36:24.227Z,100423.31
2023-01-11T23:38:50.712Z,100431.31
2023-01-11T23:41:36.398Z,100423.78
2023-01-11T23:44:04.816Z,100436.06
2023-01-11T23:46:49.636Z,100430.88
2023-01-11T23:49:16.096Z,100431.25
2023-01-11T23:51:42.891Z,100429.63
2023-01-11T23:54:09.787Z,100425.19
2023-01-11T23:56:36.921Z,100424.41
2023-01-11T23:59:04.003Z,100421.59
